Ath, Belgium
Current Conditions -  °F | °C
As of 3:38 AM on Thursday 27 Nov 2014 (Local Time) from EBCV Reporting Station
Overcast Overcast  
Wind Chill: 50°   Ceiling: 600
Heat Index: 50°   Visibility: 3mi
Dew Point: 48°   Wind: 6mph
Humidity: 94%   Direction: 170°S
Pressure: 29.77"   Gusts: NA
Location:  50.63°N, 3.78°E
Report Text: EBCV 270238Z AUTO 17005KT 5000 BKN006/// OVC021/// 10/09 Q1008 YLO
Loading
Personal Weather Stations






























Interactive Weather Map New forecast layout! Learn more

10-Day Weather Forecast

Advertisements
Track Severe Weather on mobile